createdAt,value
2023-04-24T00:03:38.222Z,11.40
2023-04-24T00:07:41.449Z,11.40
2023-04-24T00:11:43.608Z,11.40
2023-04-24T00:15:45.512Z,11.20
2023-04-24T00:19:48.720Z,10.90
2023-04-24T00:23:50.766Z,10.90
2023-04-24T00:27:52.915Z,11.00
2023-04-24T00:31:55.108Z,11.00
2023-04-24T00:35:57.192Z,10.90
2023-04-24T00:39:59.699Z,11.00
2023-04-24T00:44:01.692Z,11.10
2023-04-24T00:48:05.048Z,10.90
2023-04-24T00:52:09.796Z,10.70
2023-04-24T00:56:12.039Z,10.50
2023-04-24T01:00:15.662Z,10.40
2023-04-24T01:04:19.097Z,10.60
2023-04-24T01:08:24.625Z,10.80
2023-04-24T01:12:26.805Z,11.00
2023-04-24T01:16:29.118Z,10.80
2023-04-24T01:20:32.912Z,10.90
2023-04-24T01:24:35.531Z,10.90
2023-04-24T01:28:38.629Z,10.80
2023-04-24T01:32:42.982Z,10.90
2023-04-24T01:36:47.103Z,11.00
2023-04-24T01:40:49.062Z,10.90
2023-04-24T01:44:52.421Z,10.90
2023-04-24T01:48:54.755Z,10.50
2023-04-24T01:52:57.007Z,10.50
2023-04-24T01:56:59.030Z,10.50
2023-04-24T02:01:01.451Z,10.50
2023-04-24T02:05:04.009Z,10.20
2023-04-24T02:09:06.168Z,10.40
2023-04-24T02:13:08.130Z,10.40
2023-04-24T02:17:10.437Z,10.50
2023-04-24T02:21:12.561Z,10.30
2023-04-24T02:25:14.948Z,10.30
2023-04-24T02:29:16.986Z,10.40
2023-04-24T02:33:19.105Z,10.30
2023-04-24T02:37:21.177Z,10.20
2023-04-24T02:41:23.291Z,10.30
2023-04-24T02:45:25.213Z,10.50
2023-04-24T02:49:28.220Z,10.50
2023-04-24T02:53:31.601Z,10.60
2023-04-24T02:57:33.827Z,10.60
2023-04-24T03:01:36.467Z,10.60
2023-04-24T03:05:38.756Z,10.70
2023-04-24T03:09:42.010Z,10.50
2023-04-24T03:13:44.065Z,10.30
2023-04-24T03:17:46.025Z,10.30
2023-04-24T03:21:48.255Z,10.30
2023-04-24T03:25:50.646Z,10.40
2023-04-24T03:29:56.637Z,10.40
2023-04-24T03:34:09.718Z,10.50
2023-04-24T03:38:12.418Z,10.60
2023-04-24T03:42:14.540Z,10.60
2023-04-24T03:46:25.916Z,10.60
2023-04-24T03:50:32.528Z,10.40
2023-04-24T03:54:35.425Z,10.50
2023-04-24T03:58:37.628Z,10.60
2023-04-24T04:02:40.787Z,10.20
2023-04-24T04:06:45.195Z,9.80
2023-04-24T04:10:48.844Z,10.00
2023-04-24T04:14:50.750Z,10.40
2023-04-24T04:18:52.689Z,10.50
2023-04-24T04:22:54.826Z,10.20
2023-04-24T04:27:07.319Z,9.80
2023-04-24T04:31:17.414Z,9.90
2023-04-24T04:35:19.736Z,10.20
2023-04-24T04:39:22.241Z,10.30
2023-04-24T04:43:35.095Z,10.50
2023-04-24T04:47:37.219Z,10.30
2023-04-24T04:51:40.734Z,10.20
2023-04-24T04:55:45.312Z,10.10
2023-04-24T04:59:50.547Z,10.10
2023-04-24T05:04:03.053Z,10.10
2023-04-24T05:08:07.146Z,10.00
2023-04-24T05:12:12.062Z,9.90
2023-04-24T05:16:22.736Z,10.00
2023-04-24T05:20:27.462Z,9.70
2023-04-24T05:24:30.739Z,9.50
2023-04-24T05:29:03.937Z,9.60
2023-04-24T05:33:06.822Z,9.60
2023-04-24T05:37:11.116Z,9.70
2023-04-24T05:41:13.356Z,9.80
2023-04-24T05:45:17.761Z,9.70
2023-04-24T05:49:19.787Z,9.70
2023-04-24T05:53:23.258Z,10.00
2023-04-24T05:57:26.132Z,10.10
2023-04-24T06:01:37.288Z,10.20
2023-04-24T06:05:46.809Z,10.00
2023-04-24T06:09:49.308Z,9.70
2023-04-24T06:13:53.032Z,7.40
2023-04-24T06:18:21.296Z,6.70
2023-04-24T06:22:24.013Z,6.00
2023-04-24T06:26:27.518Z,5.80
2023-04-24T06:30:29.651Z,5.90
2023-04-24T06:34:33.580Z,5.90
2023-04-24T06:38:35.737Z,6.00
2023-04-24T06:42:38.253Z,6.20
2023-04-24T06:46:43.826Z,6.60
2023-04-24T06:50:46.311Z,7.40
2023-04-24T06:54:48.623Z,7.90
2023-04-24T06:58:50.715Z,8.10
2023-04-24T07:02:52.906Z,8.30
2023-04-24T07:06:56.778Z,8.50
2023-04-24T07:10:58.888Z,8.60
2023-04-24T07:15:01.773Z,8.50
2023-04-24T07:19:03.810Z,8.80
2023-04-24T07:23:06.042Z,9.20
2023-04-24T07:27:08.225Z,9.50
2023-04-24T07:31:12.243Z,9.70
2023-04-24T07:35:14.271Z,9.60
2023-04-24T07:39:16.239Z,9.50
2023-04-24T07:43:18.309Z,9.50
2023-04-24T07:47:21.249Z,9.80
2023-04-24T07:51:23.451Z,9.80
2023-04-24T07:55:28.116Z,9.50
2023-04-24T07:59:30.321Z,9.60
2023-04-24T08:03:32.505Z,9.60
2023-04-24T08:07:36.340Z,9.30
2023-04-24T08:11:38.444Z,9.00
2023-04-24T08:15:41.062Z,9.40
2023-04-24T08:19:48.525Z,10.00
2023-04-24T08:23:50.930Z,10.10
2023-04-24T08:27:53.251Z,10.10
2023-04-24T08:31:55.843Z,10.20
2023-04-24T08:35:57.788Z,10.00
2023-04-24T08:39:59.767Z,10.40
2023-04-24T08:44:03.509Z,10.40
2023-04-24T08:48:11.427Z,9.30
2023-04-24T08:52:20.780Z,8.80
2023-04-24T08:56:24.425Z,9.20
2023-04-24T09:00:27.137Z,8.20
2023-04-24T09:04:30.631Z,7.50
2023-04-24T09:08:34.597Z,7.20
2023-04-24T09:12:37.015Z,7.20
2023-04-24T09:16:39.100Z,7.20
2023-04-24T09:21:05.382Z,7.80
2023-04-24T09:25:13.405Z,8.10
2023-04-24T09:29:17.721Z,8.90
2023-04-24T09:33:19.953Z,8.90
2023-04-24T09:37:30.599Z,9.00
2023-04-24T09:41:34.290Z,8.80
2023-04-24T09:45:37.769Z,8.40
2023-04-24T09:49:42.302Z,8.00
2023-04-24T09:53:47.824Z,8.50
2023-04-24T09:58:02.240Z,9.20
2023-04-24T10:02:17.418Z,8.50
2023-04-24T10:06:19.661Z,8.40
2023-04-24T10:10:21.691Z,8.50
2023-04-24T10:14:26.012Z,8.60
2023-04-24T10:18:28.644Z,8.40
2023-04-24T10:22:31.475Z,9.30
2023-04-24T10:26:33.978Z,8.90
2023-04-24T10:30:36.254Z,8.80
2023-04-24T10:34:38.298Z,9.10
2023-04-24T10:38:42.583Z,8.80
2023-04-24T10:42:48.934Z,8.70
2023-04-24T10:46:55.787Z,8.90
2023-04-24T10:50:57.993Z,9.20
2023-04-24T10:55:03.086Z,8.40
2023-04-24T10:59:10.792Z,8.20
2023-04-24T11:03:33.666Z,7.80
2023-04-24T11:08:13.422Z,8.00
2023-04-24T11:12:15.895Z,7.50
2023-04-24T11:16:45.718Z,7.80
2023-04-24T11:20:47.994Z,8.00
2023-04-24T11:24:54.663Z,8.40
2023-04-24T11:29:10.399Z,8.20
2023-04-24T11:33:12.816Z,8.10
2023-04-24T11:37:15.095Z,8.20
2023-04-24T11:41:16.974Z,8.80
2023-04-24T11:45:31.668Z,8.70
2023-04-24T11:49:33.671Z,8.80
2023-04-24T11:53:37.961Z,9.30
2023-04-24T11:57:39.923Z,9.10
2023-04-24T12:01:46.509Z,8.90
2023-04-24T12:05:48.841Z,8.80
2023-04-24T12:10:01.371Z,8.50
2023-04-24T12:14:13.473Z,8.80
2023-04-24T12:18:18.064Z,9.20
2023-04-24T12:22:20.238Z,9.70
2023-04-24T12:26:24.138Z,9.90
2023-04-24T12:30:30.677Z,9.50
2023-04-24T12:34:33.034Z,9.20
2023-04-24T12:38:41.242Z,9.40
2023-04-24T12:42:47.794Z,9.30
2023-04-24T12:46:49.904Z,9.00
2023-04-24T12:50:52.076Z,8.60
2023-04-24T12:54:56.295Z,8.80
2023-04-24T12:58:58.371Z,8.70
2023-04-24T13:03:00.781Z,8.80
2023-04-24T13:07:03.406Z,8.40
2023-04-24T13:11:05.523Z,8.40
2023-04-24T13:15:08.380Z,8.40
2023-04-24T13:19:10.317Z,8.90
2023-04-24T13:23:12.469Z,9.30
2023-04-24T13:27:14.495Z,10.00
2023-04-24T13:31:16.696Z,10.40
2023-04-24T13:35:18.799Z,9.70
2023-04-24T13:39:21.063Z,9.80
2023-04-24T13:43:23.165Z,9.10
2023-04-24T13:47:25.127Z,9.30
2023-04-24T13:51:30.210Z,9.10
2023-04-24T13:55:32.242Z,9.30
2023-04-24T13:59:34.323Z,9.10
2023-04-24T14:03:38.303Z,9.60
2023-04-24T14:07:40.714Z,10.00
2023-04-24T14:11:43.149Z,9.70
2023-04-24T14:15:45.210Z,9.50
2023-04-24T14:19:47.786Z,9.10
2023-04-24T14:23:49.874Z,9.40
2023-04-24T14:27:52.392Z,10.00
2023-04-24T14:31:54.756Z,10.40
2023-04-24T14:35:56.897Z,9.90
2023-04-24T14:40:11.875Z,9.50
2023-04-24T14:44:20.765Z,9.70
2023-04-24T14:48:22.836Z,8.80
2023-04-24T14:52:25.227Z,9.50
2023-04-24T14:56:27.399Z,9.70
2023-04-24T15:00:29.590Z,9.10
2023-04-24T15:04:32.266Z,9.10
2023-04-24T15:08:34.578Z,9.10
2023-04-24T15:12:36.866Z,9.10
2023-04-24T15:16:39.232Z,9.00
2023-04-24T15:20:42.353Z,9.00
2023-04-24T15:24:44.417Z,8.30
2023-04-24T15:28:47.686Z,8.20
2023-04-24T15:32:49.880Z,7.30
2023-04-24T15:36:51.763Z,7.30
2023-04-24T15:40:53.759Z,7.60
2023-04-24T15:44:55.903Z,8.70
2023-04-24T15:48:58.242Z,8.70
2023-04-24T15:53:00.285Z,8.90
2023-04-24T15:57:02.783Z,8.80
2023-04-24T16:01:05.704Z,9.00
2023-04-24T16:05:08.865Z,9.60
2023-04-24T16:09:11.097Z,9.30
2023-04-24T16:13:18.820Z,9.40
2023-04-24T16:17:21.252Z,8.90
2023-04-24T16:21:23.242Z,8.30
2023-04-24T16:25:25.404Z,8.60
2023-04-24T16:29:28.215Z,8.90
2023-04-24T16:33:31.662Z,8.40
2023-04-24T16:37:33.834Z,8.80
2023-04-24T16:41:35.857Z,9.40
2023-04-24T16:45:37.891Z,9.60
2023-04-24T16:49:40.059Z,9.80
2023-04-24T16:53:42.272Z,10.00
2023-04-24T16:57:44.392Z,9.90
2023-04-24T17:01:47.106Z,10.10
2023-04-24T17:05:50.187Z,10.30
2023-04-24T17:09:52.406Z,10.50
2023-04-24T17:13:54.612Z,10.60
2023-04-24T17:17:57.659Z,10.50
2023-04-24T17:21:59.792Z,10.30
2023-04-24T17:26:01.938Z,10.20
2023-04-24T17:30:04.639Z,9.90
2023-04-24T17:34:07.814Z,9.60
2023-04-24T17:38:09.915Z,9.80
2023-04-24T17:42:12.210Z,10.10
2023-04-24T17:46:14.598Z,10.30
2023-04-24T17:50:16.861Z,10.10
2023-04-24T17:54:19.001Z,10.10
2023-04-24T17:58:21.127Z,10.40
2023-04-24T18:02:23.452Z,10.40
2023-04-24T18:06:25.678Z,10.40
2023-04-24T18:10:29.580Z,10.20
2023-04-24T18:14:31.918Z,10.20
2023-04-24T18:18:34.021Z,10.10
2023-04-24T18:22:36.600Z,9.90
2023-04-24T18:26:38.928Z,9.90
2023-04-24T18:30:41.215Z,9.80
2023-04-24T18:34:43.239Z,10.10
2023-04-24T18:38:46.043Z,10.10
2023-04-24T18:42:48.575Z,10.10
2023-04-24T18:46:50.692Z,10.10
2023-04-24T18:50:52.930Z,10.00
2023-04-24T18:54:55.190Z,10.00
2023-04-24T18:58:57.340Z,9.90
2023-04-24T19:02:59.642Z,9.90
2023-04-24T19:07:02.073Z,9.90
2023-04-24T19:11:05.183Z,9.60
2023-04-24T19:15:11.532Z,9.60
2023-04-24T19:19:13.775Z,9.60
2023-04-24T19:23:16.052Z,9.60
2023-04-24T19:27:18.228Z,9.60
2023-04-24T19:31:21.082Z,9.60
2023-04-24T19:35:23.204Z,9.50
2023-04-24T19:39:25.352Z,9.40
2023-04-24T19:43:27.599Z,9.40
2023-04-24T19:47:29.789Z,9.40
2023-04-24T19:51:33.282Z,9.10
2023-04-24T19:55:36.187Z,8.60
2023-04-24T19:59:38.131Z,8.40
2023-04-24T20:03:40.287Z,8.40
2023-04-24T20:07:43.338Z,8.40
2023-04-24T20:11:47.660Z,8.40
2023-04-24T20:15:50.029Z,8.50
2023-04-24T20:19:52.102Z,8.40
2023-04-24T20:23:54.263Z,8.20
2023-04-24T20:27:56.616Z,8.10
2023-04-24T20:31:59.306Z,8.10
2023-04-24T20:36:01.584Z,8.10
2023-04-24T20:40:07.037Z,8.00
2023-04-24T20:44:09.214Z,8.00
2023-04-24T20:48:12.969Z,8.00
2023-04-24T20:52:15.330Z,7.30
2023-04-24T20:56:17.555Z,7.00
2023-04-24T21:00:19.832Z,6.80
2023-04-24T21:04:22.017Z,6.70
2023-04-24T21:08:24.051Z,6.80
2023-04-24T21:12:26.247Z,7.20
2023-04-24T21:16:28.395Z,7.40
2023-04-24T21:20:30.477Z,7.70
2023-04-24T21:24:32.620Z,7.90
2023-04-24T21:28:35.047Z,8.10
2023-04-24T21:32:37.266Z,8.20
2023-04-24T21:36:39.429Z,8.20
2023-04-24T21:40:41.534Z,8.30
2023-04-24T21:44:43.769Z,8.30
2023-04-24T21:48:46.169Z,7.90
2023-04-24T21:52:48.382Z,7.50
2023-04-24T21:56:50.725Z,7.10
2023-04-24T22:00:52.941Z,7.30
2023-04-24T22:04:56.721Z,7.50
2023-04-24T22:08:59.158Z,7.60
2023-04-24T22:13:01.414Z,7.30
2023-04-24T22:17:03.480Z,7.20
2023-04-24T22:21:05.734Z,7.60
2023-04-24T22:25:08.618Z,7.30
2023-04-24T22:29:10.923Z,7.10
2023-04-24T22:33:13.126Z,6.60
2023-04-24T22:37:15.842Z,6.90
2023-04-24T22:41:18.124Z,6.90
2023-04-24T22:45:23.573Z,7.00
2023-04-24T22:49:27.292Z,7.40
2023-04-24T22:53:29.830Z,7.60
2023-04-24T22:57:31.742Z,7.70
2023-04-24T23:01:33.920Z,7.50
2023-04-24T23:05:36.477Z,7.40
2023-04-24T23:09:38.768Z,7.40
2023-04-24T23:13:40.988Z,7.30
2023-04-24T23:17:43.617Z,7.30
2023-04-24T23:21:45.707Z,7.40
2023-04-24T23:25:47.878Z,6.90
2023-04-24T23:29:49.956Z,6.60
2023-04-24T23:33:52.078Z,6.60
2023-04-24T23:37:56.203Z,6.60
2023-04-24T23:41:59.660Z,6.50
2023-04-24T23:46:01.599Z,6.30
2023-04-24T23:50:03.710Z,6.50
2023-04-24T23:54:06.152Z,6.50
2023-04-24T23:58:08.143Z,6.60
